createdAt,value
2023-02-05T00:01:29.000Z,89.06
2023-02-05T00:03:30.570Z,89.33
2023-02-05T00:05:32.328Z,88.78
2023-02-05T00:07:33.814Z,88.60
2023-02-05T00:09:36.422Z,88.62
2023-02-05T00:11:37.882Z,89.02
2023-02-05T00:13:41.292Z,88.73
2023-02-05T00:15:42.747Z,88.80
2023-02-05T00:17:44.155Z,88.41
2023-02-05T00:19:45.517Z,88.73
2023-02-05T00:21:48.342Z,88.99
2023-02-05T00:23:51.372Z,88.81
2023-02-05T00:25:52.757Z,88.65
2023-02-05T00:27:54.158Z,88.87
2023-02-05T00:29:55.596Z,89.19
2023-02-05T00:31:56.954Z,88.84
2023-02-05T00:33:58.371Z,89.15
2023-02-05T00:35:59.845Z,88.89
2023-02-05T00:38:01.255Z,88.64
2023-02-05T00:40:03.382Z,88.78
2023-02-05T00:42:04.847Z,89.01
2023-02-05T00:44:06.828Z,88.79
2023-02-05T00:46:10.357Z,88.81
2023-02-05T00:48:11.779Z,88.73
2023-02-05T00:50:13.155Z,88.47
2023-02-05T00:52:14.579Z,88.41
2023-02-05T00:54:15.960Z,88.33
2023-02-05T00:56:17.478Z,88.99
2023-02-05T00:58:19.367Z,88.75
2023-02-05T01:00:20.810Z,88.53
2023-02-05T01:02:24.019Z,88.33
2023-02-05T01:04:25.429Z,88.68
2023-02-05T01:06:26.920Z,88.42
2023-02-05T01:08:28.280Z,88.51
2023-02-05T01:10:29.683Z,88.57
2023-02-05T01:12:33.123Z,88.73
2023-02-05T01:14:34.524Z,88.63
2023-02-05T01:16:35.943Z,88.70
2023-02-05T01:18:37.637Z,88.90
2023-02-05T01:20:40.671Z,89.05
2023-02-05T01:22:42.656Z,89.18
2023-02-05T01:24:44.010Z,88.95
2023-02-05T01:26:45.592Z,88.20
2023-02-05T01:28:47.140Z,88.64
2023-02-05T01:30:49.713Z,89.34
2023-02-05T01:32:51.252Z,88.89
2023-02-05T01:34:52.673Z,88.78
2023-02-05T01:36:54.027Z,88.93
2023-02-05T01:38:55.416Z,89.20
2023-02-05T01:40:59.756Z,89.08
2023-02-05T01:43:01.126Z,88.34
2023-02-05T01:45:32.624Z,89.13
2023-02-05T01:47:34.360Z,89.17
2023-02-05T01:49:42.291Z,88.54
2023-02-05T01:51:45.223Z,88.77
2023-02-05T01:53:48.791Z,89.20
2023-02-05T01:56:01.152Z,89.13
2023-02-05T01:58:02.725Z,88.91
2023-02-05T02:00:06.275Z,89.01
2023-02-05T02:02:08.074Z,88.84
2023-02-05T02:04:14.642Z,88.57
2023-02-05T02:06:16.105Z,88.79
2023-02-05T02:10:45.452Z,88.99
2023-02-05T02:12:48.521Z,88.97
2023-02-05T02:14:53.861Z,89.10
2023-02-05T02:16:55.765Z,89.03
2023-02-05T02:18:57.442Z,88.94
2023-02-05T02:21:07.712Z,88.97
2023-02-05T02:23:27.664Z,89.02
2023-02-05T02:25:55.720Z,89.19
2023-02-05T02:28:27.664Z,88.88
2023-02-05T02:30:37.661Z,89.01
2023-02-05T02:32:45.015Z,89.25
2023-02-05T02:34:53.710Z,89.20
2023-02-05T02:37:02.799Z,89.29
2023-02-05T02:39:07.140Z,89.09
2023-02-05T02:41:24.567Z,89.06
2023-02-05T02:43:41.095Z,89.05
2023-02-05T02:45:51.451Z,88.88
2023-02-05T02:47:58.731Z,88.89
2023-02-05T02:50:04.911Z,88.89
2023-02-05T02:52:09.099Z,89.30
2023-02-05T02:54:17.545Z,89.20
2023-02-05T02:56:20.381Z,88.98
2023-02-05T02:58:29.897Z,89.14
2023-02-05T03:00:32.314Z,89.27
2023-02-05T03:02:37.530Z,89.34
2023-02-05T03:04:42.928Z,89.03
2023-02-05T03:06:49.072Z,89.04
2023-02-05T03:09:01.212Z,89.16
2023-02-05T03:11:08.782Z,89.21
2023-02-05T03:13:11.863Z,89.20
2023-02-05T03:15:13.850Z,89.30
2023-02-05T03:17:19.587Z,89.42
2023-02-05T03:19:21.068Z,89.29
2023-02-05T03:21:30.639Z,88.95
2023-02-05T03:23:32.339Z,88.91
2023-02-05T03:25:34.107Z,89.21
2023-02-05T03:27:36.292Z,89.19
2023-02-05T03:29:44.453Z,89.48
2023-02-05T03:32:14.426Z,89.15
2023-02-05T03:34:47.169Z,89.25
2023-02-05T03:36:58.798Z,88.89
2023-02-05T03:39:21.204Z,88.99
2023-02-05T03:41:51.390Z,89.35
2023-02-05T03:44:17.954Z,89.46
2023-02-05T03:46:28.132Z,89.39
2023-02-05T03:48:39.540Z,89.49
2023-02-05T03:50:54.061Z,89.40
2023-02-05T03:53:11.662Z,89.81
2023-02-05T03:55:29.702Z,89.53
2023-02-05T03:57:43.179Z,89.44
2023-02-05T03:59:45.615Z,89.69
2023-02-05T04:01:47.349Z,89.53
2023-02-05T04:03:48.756Z,90.04
2023-02-05T04:05:50.103Z,90.03
2023-02-05T04:07:52.037Z,90.15
2023-02-05T04:09:53.451Z,90.31
2023-02-05T04:11:54.812Z,90.23
2023-02-05T04:13:56.167Z,90.14
2023-02-05T04:15:57.541Z,90.52
2023-02-05T04:17:58.950Z,90.44
2023-02-05T04:20:00.467Z,90.38
2023-02-05T04:22:01.861Z,90.21
2023-02-05T04:24:03.391Z,90.26
2023-02-05T04:26:04.834Z,90.29
2023-02-05T04:28:06.760Z,90.07
2023-02-05T04:30:08.830Z,89.98
2023-02-05T04:32:10.209Z,90.14
2023-02-05T04:34:11.588Z,90.20
2023-02-05T04:36:14.242Z,89.88
2023-02-05T04:38:15.672Z,90.63
2023-02-05T04:40:17.399Z,90.06
2023-02-05T04:42:18.791Z,90.19
2023-02-05T04:44:20.373Z,90.51
2023-02-05T04:46:21.793Z,90.52
2023-02-05T04:48:23.300Z,90.77
2023-02-05T04:50:24.930Z,90.32
2023-02-05T04:52:31.551Z,90.39
2023-02-05T04:54:32.955Z,90.95
2023-02-05T04:56:34.338Z,90.48
2023-02-05T04:58:35.842Z,90.94
2023-02-05T05:00:37.183Z,90.61
2023-02-05T05:02:38.618Z,90.64
2023-02-05T05:04:42.103Z,90.60
2023-02-05T05:06:44.479Z,90.16
2023-02-05T05:08:46.330Z,90.54
2023-02-05T05:10:47.839Z,91.49
2023-02-05T05:12:49.202Z,91.87
2023-02-05T05:14:50.603Z,92.65
2023-02-05T05:16:51.942Z,92.71
2023-02-05T05:18:53.385Z,93.17
2023-02-05T05:20:54.819Z,92.80
2023-02-05T05:22:56.624Z,93.00
2023-02-05T05:24:58.028Z,92.34
2023-02-05T05:26:59.982Z,93.25
2023-02-05T05:29:01.552Z,92.92
2023-02-05T05:31:14.242Z,93.49
2023-02-05T05:33:16.112Z,93.28
2023-02-05T05:35:17.525Z,93.98
2023-02-05T05:37:18.901Z,93.01
2023-02-05T05:39:38.889Z,93.21
2023-02-05T05:41:58.806Z,93.78
2023-02-05T05:44:00.204Z,93.00
2023-02-05T05:46:02.189Z,92.91
2023-02-05T05:48:04.350Z,92.92
2023-02-05T05:50:06.226Z,93.24
2023-02-05T05:52:07.627Z,93.50
2023-02-05T05:54:09.002Z,93.17
2023-02-05T05:56:10.594Z,92.90
2023-02-05T05:58:12.475Z,92.61
2023-02-05T06:00:14.639Z,92.92
2023-02-05T06:02:16.045Z,92.72
2023-02-05T06:04:17.467Z,93.07
2023-02-05T06:06:18.865Z,93.07
2023-02-05T06:08:20.336Z,92.96
2023-02-05T06:10:21.839Z,92.81
2023-02-05T06:12:23.218Z,93.16
2023-02-05T06:14:24.647Z,93.19
2023-02-05T06:16:26.280Z,92.89
2023-02-05T06:18:27.666Z,92.91
2023-02-05T06:20:29.084Z,93.62
2023-02-05T06:22:30.932Z,93.16
2023-02-05T06:24:32.300Z,93.20
2023-02-05T06:26:33.689Z,93.35
2023-02-05T06:28:35.157Z,93.33
2023-02-05T06:30:36.667Z,93.47
2023-02-05T06:32:38.076Z,92.96
2023-02-05T06:34:39.470Z,93.21
2023-02-05T06:36:40.854Z,93.60
2023-02-05T06:38:42.206Z,93.76
2023-02-05T06:40:43.655Z,93.04
2023-02-05T06:42:45.339Z,94.24
2023-02-05T06:44:46.875Z,94.71
2023-02-05T06:46:48.237Z,94.06
2023-02-05T06:48:49.618Z,94.86
2023-02-05T06:50:51.010Z,94.90
2023-02-05T06:52:52.434Z,94.48
2023-02-05T06:54:53.833Z,94.93
2023-02-05T06:56:55.192Z,94.31
2023-02-05T06:58:56.551Z,94.68
2023-02-05T07:00:57.981Z,95.09
2023-02-05T07:02:59.423Z,94.21
2023-02-05T07:05:00.887Z,94.82
2023-02-05T07:07:02.351Z,94.69
2023-02-05T07:09:04.193Z,95.04
2023-02-05T07:11:05.600Z,94.40
2023-02-05T07:13:07.009Z,94.42
2023-02-05T07:15:08.468Z,93.93
2023-02-05T07:17:09.922Z,94.18
2023-02-05T07:19:11.817Z,94.31
2023-02-05T07:21:16.260Z,94.55
2023-02-05T07:23:17.702Z,94.39
2023-02-05T07:25:19.074Z,94.96
2023-02-05T07:27:20.457Z,94.58
2023-02-05T07:29:21.924Z,94.63
2023-02-05T07:31:23.399Z,93.94
2023-02-05T07:33:24.860Z,94.90
2023-02-05T07:35:26.587Z,93.94
2023-02-05T07:37:27.948Z,94.31
2023-02-05T07:39:29.455Z,94.32
2023-02-05T07:41:30.835Z,93.63
2023-02-05T07:43:32.442Z,93.67
2023-02-05T07:45:34.245Z,93.77
2023-02-05T07:47:35.789Z,94.45
2023-02-05T07:49:37.247Z,93.89
2023-02-05T07:51:38.750Z,93.82
2023-02-05T07:53:40.113Z,94.01
2023-02-05T07:55:41.482Z,94.36
2023-02-05T07:57:42.917Z,94.04
2023-02-05T07:59:44.429Z,94.19
2023-02-05T08:01:45.851Z,93.85
2023-02-05T08:03:47.234Z,93.63
2023-02-05T08:05:48.626Z,93.51
2023-02-05T08:07:50.002Z,93.85
2023-02-05T08:09:51.377Z,93.30
2023-02-05T08:11:52.872Z,93.51
2023-02-05T08:13:54.274Z,93.55
2023-02-05T08:15:55.691Z,93.69
2023-02-05T08:17:57.084Z,93.45
2023-02-05T08:20:03.036Z,93.80
2023-02-05T08:22:04.439Z,93.60
2023-02-05T08:24:06.060Z,93.73
2023-02-05T08:26:07.541Z,93.87
2023-02-05T08:28:08.967Z,93.57
2023-02-05T08:30:15.085Z,93.40
2023-02-05T08:32:16.607Z,92.93
2023-02-05T08:34:20.552Z,92.49
2023-02-05T08:36:22.300Z,93.21
2023-02-05T08:38:23.668Z,93.14
2023-02-05T08:40:25.265Z,92.27
2023-02-05T08:42:26.660Z,92.36
2023-02-05T08:44:28.747Z,91.34
2023-02-05T08:46:40.380Z,91.37
2023-02-05T08:48:50.211Z,92.11
2023-02-05T08:50:51.652Z,91.58
2023-02-05T08:52:53.048Z,91.12
2023-02-05T08:54:54.425Z,91.99
2023-02-05T08:56:55.863Z,91.87
2023-02-05T08:58:57.286Z,91.70
2023-02-05T09:01:07.288Z,91.97
2023-02-05T09:03:08.707Z,92.63
2023-02-05T09:05:10.652Z,92.74
2023-02-05T09:07:12.048Z,92.60
2023-02-05T09:09:14.308Z,92.59
2023-02-05T09:11:21.126Z,92.78
2023-02-05T09:13:22.499Z,93.31
2023-02-05T09:15:24.043Z,93.25
2023-02-05T09:17:25.493Z,92.93
2023-02-05T09:19:26.854Z,92.72
2023-02-05T09:21:28.279Z,92.28
2023-02-05T09:23:29.643Z,91.80
2023-02-05T09:25:34.074Z,91.64
2023-02-05T09:27:35.684Z,92.69
2023-02-05T09:29:37.120Z,91.46
2023-02-05T09:31:41.067Z,91.50
2023-02-05T09:33:45.394Z,91.06
2023-02-05T09:35:47.654Z,90.97
2023-02-05T09:37:49.112Z,91.06
2023-02-05T09:40:19.452Z,90.67
2023-02-05T09:42:49.722Z,90.30
2023-02-05T09:45:11.618Z,90.35
2023-02-05T09:47:34.300Z,90.52
2023-02-05T09:49:56.191Z,90.05
2023-02-05T09:52:17.546Z,91.47
2023-02-05T09:54:28.530Z,91.59
2023-02-05T09:56:30.312Z,91.44
2023-02-05T09:58:37.733Z,91.08
2023-02-05T10:01:02.862Z,91.28
2023-02-05T10:03:21.596Z,91.62
2023-02-05T10:05:26.313Z,91.65
2023-02-05T10:07:49.961Z,91.54
2023-02-05T10:10:11.349Z,91.61
2023-02-05T10:12:27.550Z,90.73
2023-02-05T10:14:59.571Z,91.13
2023-02-05T10:17:29.300Z,91.35
2023-02-05T10:19:41.799Z,91.04
2023-02-05T10:22:01.500Z,91.04
2023-02-05T10:24:21.439Z,90.74
2023-02-05T10:26:32.070Z,91.45
2023-02-05T10:28:42.438Z,91.82
2023-02-05T10:30:58.923Z,91.26
2023-02-05T10:33:16.567Z,91.02
2023-02-05T10:35:44.559Z,91.22
2023-02-05T10:37:51.698Z,92.09
2023-02-05T10:39:57.363Z,92.12
2023-02-05T10:42:11.898Z,90.80
2023-02-05T10:44:15.988Z,91.55
2023-02-05T10:46:18.156Z,91.45
2023-02-05T10:48:32.825Z,91.07
2023-02-05T10:50:49.470Z,91.75
2023-02-05T10:52:51.166Z,91.59
2023-02-05T10:54:52.630Z,92.50
2023-02-05T10:56:56.044Z,91.46
2023-02-05T10:59:02.392Z,92.26
2023-02-05T11:01:09.028Z,91.93
2023-02-05T11:03:17.108Z,91.51
2023-02-05T11:05:31.876Z,92.32
2023-02-05T11:07:38.382Z,92.18
2023-02-05T11:09:40.058Z,92.05
2023-02-05T11:11:41.572Z,92.53
2023-02-05T11:13:51.630Z,91.50
2023-02-05T11:15:58.758Z,91.74
2023-02-05T11:18:06.368Z,91.84
2023-02-05T11:20:30.626Z,91.84
2023-02-05T11:22:35.181Z,91.91
2023-02-05T11:24:41.656Z,92.11
2023-02-05T11:26:44.909Z,92.16
2023-02-05T11:28:46.949Z,92.24
2023-02-05T11:30:51.189Z,91.71
2023-02-05T11:32:53.172Z,92.45
2023-02-05T11:35:09.752Z,92.23
2023-02-05T11:37:17.223Z,92.17
2023-02-05T11:39:39.571Z,92.30
2023-02-05T11:41:48.202Z,92.90
2023-02-05T11:43:51.378Z,92.58
2023-02-05T11:45:55.830Z,92.29
2023-02-05T11:48:00.969Z,93.28
2023-02-05T11:50:05.177Z,93.53
2023-02-05T11:52:12.392Z,92.78
2023-02-05T11:54:29.732Z,93.66
2023-02-05T11:56:31.246Z,93.58
2023-02-05T11:58:37.073Z,93.14
2023-02-05T12:00:50.600Z,93.18
2023-02-05T12:03:03.912Z,93.08
2023-02-05T12:05:05.259Z,93.34
2023-02-05T12:07:15.308Z,92.67
2023-02-05T12:09:21.550Z,92.82
2023-02-05T12:12:03.486Z,93.37
2023-02-05T12:14:22.454Z,93.33
2023-02-05T12:16:37.293Z,93.11
2023-02-05T12:19:03.117Z,92.49
2023-02-05T12:21:36.847Z,93.17
2023-02-05T12:24:11.061Z,93.22
2023-02-05T12:26:35.851Z,92.30
2023-02-05T12:28:58.618Z,92.95
2023-02-05T12:31:23.237Z,92.37
2023-02-05T12:33:35.917Z,92.45
2023-02-05T12:36:18.908Z,91.91
2023-02-05T12:38:33.024Z,92.17
2023-02-05T12:41:02.325Z,92.73
2023-02-05T12:43:33.288Z,92.99
2023-02-05T12:45:58.796Z,92.86
2023-02-05T12:48:22.801Z,92.44
2023-02-05T12:50:48.808Z,93.03
2023-02-05T12:52:58.813Z,92.67
2023-02-05T12:55:25.425Z,92.80
2023-02-05T12:57:44.067Z,92.43
2023-02-05T13:00:03.197Z,92.65
2023-02-05T13:02:07.077Z,92.86
2023-02-05T13:04:21.964Z,92.18
2023-02-05T13:06:29.920Z,92.18
2023-02-05T13:08:42.583Z,92.32
2023-02-05T13:10:57.567Z,92.59
2023-02-05T13:13:05.324Z,92.53
2023-02-05T13:15:18.425Z,92.55
2023-02-05T13:17:29.069Z,92.83
2023-02-05T13:19:35.146Z,91.94
2023-02-05T13:21:54.808Z,91.88
2023-02-05T13:24:40.997Z,91.80
2023-02-05T13:27:04.984Z,91.79
2023-02-05T13:29:12.265Z,92.30
2023-02-05T13:31:26.376Z,91.91
2023-02-05T13:33:27.927Z,92.41
2023-02-05T13:35:40.082Z,92.21
2023-02-05T13:40:36.260Z,92.57
2023-02-05T13:42:56.395Z,92.42
2023-02-05T13:45:16.248Z,93.04
2023-02-05T13:47:55.023Z,93.22
2023-02-05T13:49:59.376Z,92.86
2023-02-05T13:52:16.604Z,92.21
2023-02-05T13:54:39.044Z,93.11
2023-02-05T13:57:15.847Z,92.67
2023-02-05T13:59:22.882Z,92.98
2023-02-05T14:01:29.707Z,92.74
2023-02-05T14:03:38.218Z,92.78
2023-02-05T14:05:42.752Z,92.93
2023-02-05T14:07:45.993Z,93.32
2023-02-05T14:09:56.325Z,92.58
2023-02-05T14:12:05.132Z,93.53
2023-02-05T14:14:28.230Z,92.61
2023-02-05T14:16:29.564Z,92.84
2023-02-05T14:18:39.998Z,92.08
2023-02-05T14:20:42.649Z,92.88
2023-02-05T14:22:44.776Z,92.51
2023-02-05T14:24:49.248Z,92.13
2023-02-05T14:27:00.658Z,92.42
2023-02-05T14:29:02.235Z,92.53
2023-02-05T14:31:07.226Z,92.48
2023-02-05T14:33:37.590Z,92.92
2023-02-05T14:35:39.999Z,92.48
2023-02-05T14:37:48.264Z,92.33
2023-02-05T14:39:51.307Z,92.32
2023-02-05T14:41:58.610Z,92.72
2023-02-05T14:44:04.155Z,92.36
2023-02-05T14:46:39.834Z,92.04
2023-02-05T14:48:46.868Z,91.46
2023-02-05T14:51:18.833Z,92.12
2023-02-05T14:53:26.644Z,91.62
2023-02-05T14:55:43.294Z,91.67
2023-02-05T14:57:56.852Z,91.78
2023-02-05T15:00:38.178Z,91.75
2023-02-05T15:03:01.268Z,91.51
2023-02-05T15:05:04.670Z,91.59
2023-02-05T15:07:17.651Z,91.85
2023-02-05T15:09:30.517Z,91.99
2023-02-05T15:11:53.432Z,92.04
2023-02-05T15:14:20.211Z,91.81
2023-02-05T15:16:22.188Z,92.13
2023-02-05T15:18:33.031Z,91.11
2023-02-05T15:20:38.036Z,91.71
2023-02-05T15:22:50.815Z,92.27
2023-02-05T15:24:54.421Z,92.05
2023-02-05T15:27:17.541Z,92.24
2023-02-05T15:29:42.348Z,91.88
2023-02-05T15:31:48.446Z,92.30
2023-02-05T15:33:59.667Z,91.79
2023-02-05T15:36:08.686Z,91.33
2023-02-05T15:38:32.988Z,91.60
2023-02-05T15:40:38.451Z,92.04
2023-02-05T15:42:43.270Z,91.61
2023-02-05T15:44:44.886Z,92.09
2023-02-05T15:46:47.326Z,92.05
2023-02-05T15:48:48.740Z,91.51
2023-02-05T15:50:52.228Z,91.13
2023-02-05T15:52:54.016Z,91.68
2023-02-05T15:55:08.413Z,92.53
2023-02-05T15:57:20.686Z,91.63
2023-02-05T15:59:26.569Z,91.63
2023-02-05T16:01:47.878Z,91.79
2023-02-05T16:03:49.432Z,91.53
2023-02-05T16:05:53.045Z,92.00
2023-02-05T16:07:59.001Z,92.47
2023-02-05T16:10:04.162Z,92.10
2023-02-05T16:12:13.092Z,92.13
2023-02-05T16:14:23.188Z,92.52
2023-02-05T16:16:24.743Z,92.15
2023-02-05T16:18:36.578Z,92.23
2023-02-05T16:20:43.016Z,92.63
2023-02-05T16:22:57.566Z,92.42
2023-02-05T16:25:04.203Z,93.11
2023-02-05T16:27:16.816Z,93.13
2023-02-05T16:29:29.651Z,93.15
2023-02-05T16:31:35.382Z,93.02
2023-02-05T16:33:53.614Z,92.73
2023-02-05T16:35:57.574Z,92.92
2023-02-05T16:38:00.787Z,92.40
2023-02-05T16:40:06.600Z,93.07
2023-02-05T16:42:25.918Z,92.86
2023-02-05T16:44:35.046Z,93.03
2023-02-05T16:46:36.982Z,92.63
2023-02-05T16:48:47.892Z,92.92
2023-02-05T16:50:50.334Z,93.84
2023-02-05T16:52:59.137Z,93.57
2023-02-05T16:55:39.666Z,93.09
2023-02-05T16:57:41.104Z,93.36
2023-02-05T16:59:45.530Z,94.00
2023-02-05T17:01:47.251Z,93.60
2023-02-05T17:03:50.616Z,93.52
2023-02-05T17:05:56.579Z,93.50
2023-02-05T17:07:59.113Z,93.19
2023-02-05T17:10:19.560Z,93.19
2023-02-05T17:12:32.631Z,93.29
2023-02-05T17:14:35.687Z,93.29
2023-02-05T17:16:40.692Z,92.77
2023-02-05T17:18:43.269Z,92.72
2023-02-05T17:20:46.020Z,92.65
2023-02-05T17:23:05.636Z,92.71
2023-02-05T17:25:07.056Z,92.36
2023-02-05T17:27:15.852Z,92.68
2023-02-05T17:29:17.272Z,92.33
2023-02-05T17:31:18.756Z,91.87
2023-02-05T17:33:25.763Z,91.65
2023-02-05T17:35:27.447Z,92.05
2023-02-05T17:37:28.934Z,92.57
2023-02-05T17:39:30.302Z,91.52
2023-02-05T17:41:54.876Z,92.01
2023-02-05T17:43:56.300Z,91.57
2023-02-05T17:45:57.727Z,91.41
2023-02-05T17:47:59.220Z,91.55
2023-02-05T17:50:00.710Z,91.70
2023-02-05T17:52:02.136Z,91.82
2023-02-05T17:54:03.617Z,92.00
2023-02-05T17:56:05.152Z,92.16
2023-02-05T17:58:06.524Z,92.06
2023-02-05T18:00:11.203Z,91.89
2023-02-05T18:02:13.436Z,91.75
2023-02-05T18:04:15.404Z,91.02
2023-02-05T18:06:18.329Z,91.76
2023-02-05T18:08:20.736Z,91.98
2023-02-05T18:10:34.268Z,92.32
2023-02-05T18:12:35.806Z,92.52
2023-02-05T18:14:37.205Z,92.82
2023-02-05T18:16:38.668Z,92.75
2023-02-05T18:18:40.145Z,92.65
2023-02-05T18:20:41.603Z,92.88
2023-02-05T18:22:42.969Z,92.76
2023-02-05T18:24:44.366Z,92.33
2023-02-05T18:26:48.221Z,92.72
2023-02-05T18:28:51.246Z,92.77
2023-02-05T18:30:58.048Z,92.51
2023-02-05T18:32:59.520Z,92.68
2023-02-05T18:35:00.896Z,92.29
2023-02-05T18:37:02.263Z,92.46
2023-02-05T18:39:03.741Z,92.86
2023-02-05T18:41:12.374Z,92.58
2023-02-05T18:43:13.813Z,92.74
2023-02-05T18:45:15.192Z,92.79
2023-02-05T18:47:16.543Z,92.80
2023-02-05T18:49:17.944Z,92.67
2023-02-05T18:51:21.670Z,93.07
2023-02-05T18:53:26.921Z,92.97
2023-02-05T18:55:29.163Z,92.70
2023-02-05T18:57:30.543Z,93.22
2023-02-05T18:59:31.964Z,93.03
2023-02-05T19:01:36.288Z,92.68
2023-02-05T19:03:38.787Z,92.72
2023-02-05T19:05:40.280Z,92.69
2023-02-05T19:07:41.690Z,92.70
2023-02-05T19:09:43.463Z,92.40
2023-02-05T19:11:46.323Z,92.36
2023-02-05T19:13:53.843Z,92.48
2023-02-05T19:15:55.277Z,91.68
2023-02-05T19:17:56.645Z,91.36
2023-02-05T19:19:58.515Z,91.25
2023-02-05T19:22:01.826Z,90.43
2023-02-05T19:24:07.229Z,90.32
2023-02-05T19:26:14.462Z,90.22
2023-02-05T19:28:15.873Z,90.30
2023-02-05T19:30:17.510Z,90.12
2023-02-05T19:32:18.917Z,90.11
2023-02-05T19:34:22.053Z,90.96
2023-02-05T19:36:24.803Z,90.11
2023-02-05T19:38:26.505Z,90.58
2023-02-05T19:40:27.971Z,90.29
2023-02-05T19:42:30.296Z,91.11
2023-02-05T19:44:32.131Z,89.47
2023-02-05T19:49:08.291Z,89.36
2023-02-05T19:51:12.200Z,89.75
2023-02-05T19:53:13.632Z,90.24
2023-02-05T19:55:15.032Z,89.81
2023-02-05T19:57:16.376Z,89.97
2023-02-05T19:59:18.473Z,89.92
2023-02-05T20:01:30.020Z,89.73
2023-02-05T20:03:31.459Z,90.00
2023-02-05T20:05:36.286Z,90.44
2023-02-05T20:07:38.878Z,89.98
2023-02-05T20:09:40.324Z,88.93
2023-02-05T20:11:46.163Z,88.20
2023-02-05T20:13:48.087Z,88.51
2023-02-05T20:15:49.576Z,88.91
2023-02-05T20:17:52.291Z,88.46
2023-02-05T20:20:02.569Z,88.65
2023-02-05T20:22:10.562Z,89.37
2023-02-05T20:24:12.530Z,88.48
2023-02-05T20:26:18.675Z,89.16
2023-02-05T20:28:20.115Z,89.21
2023-02-05T20:30:40.190Z,88.39
2023-02-05T20:32:44.805Z,89.06
2023-02-05T20:34:49.976Z,88.94
2023-02-05T20:36:52.776Z,89.00
2023-02-05T20:38:57.884Z,88.86
2023-02-05T20:40:59.791Z,89.38
2023-02-05T20:43:01.225Z,88.45
2023-02-05T20:45:02.638Z,89.30
2023-02-05T20:47:07.141Z,89.46
2023-02-05T20:49:08.969Z,89.24
2023-02-05T20:51:12.608Z,89.00
2023-02-05T20:53:14.030Z,89.15
2023-02-05T20:55:15.561Z,88.05
2023-02-05T20:57:17.049Z,88.30
2023-02-05T20:59:18.968Z,88.95
2023-02-05T21:01:25.686Z,88.78
2023-02-05T21:03:27.045Z,89.52
2023-02-05T21:05:28.446Z,88.93
2023-02-05T21:07:29.953Z,90.04
2023-02-05T21:09:31.352Z,90.78
2023-02-05T21:11:33.156Z,89.99
2023-02-05T21:13:35.894Z,89.88
2023-02-05T21:15:37.493Z,89.63
2023-02-05T21:17:38.978Z,89.21
2023-02-05T21:19:40.475Z,89.21
2023-02-05T21:21:41.937Z,88.90
2023-02-05T21:23:45.856Z,89.66
2023-02-05T21:25:48.010Z,89.23
2023-02-05T21:27:50.693Z,88.61
2023-02-05T21:29:52.310Z,88.85
2023-02-05T21:31:55.529Z,88.60
2023-02-05T21:33:57.936Z,89.40
2023-02-05T21:36:04.553Z,89.40
2023-02-05T21:38:05.924Z,89.08
2023-02-05T21:40:09.661Z,89.13
2023-02-05T21:42:11.300Z,88.96
2023-02-05T21:44:12.833Z,89.20
2023-02-05T21:46:14.347Z,89.32
2023-02-05T21:48:15.698Z,88.83
2023-02-05T21:50:17.145Z,88.90
2023-02-05T21:52:18.551Z,89.36
2023-02-05T21:54:25.166Z,89.14
2023-02-05T21:56:36.230Z,88.90
2023-02-05T21:58:40.291Z,88.50
2023-02-05T22:00:41.643Z,89.22
2023-02-05T22:02:43.058Z,89.26
2023-02-05T22:04:44.452Z,89.75
2023-02-05T22:06:45.833Z,89.02
2023-02-05T22:08:50.392Z,89.73
2023-02-05T22:10:51.844Z,90.11
2023-02-05T22:12:53.380Z,89.46
2023-02-05T22:14:54.766Z,90.61
2023-02-05T22:16:56.564Z,89.84
2023-02-05T22:18:59.080Z,90.10
2023-02-05T22:21:08.725Z,89.83
2023-02-05T22:23:10.111Z,90.52
2023-02-05T22:25:11.601Z,89.94
2023-02-05T22:27:13.121Z,90.25
2023-02-05T22:29:17.790Z,91.03
2023-02-05T22:31:21.302Z,90.60
2023-02-05T22:33:22.688Z,90.97
2023-02-05T22:35:24.055Z,90.76
2023-02-05T22:37:25.436Z,91.74
2023-02-05T22:39:26.780Z,91.16
2023-02-05T22:41:30.985Z,91.95
2023-02-05T22:43:32.425Z,91.45
2023-02-05T22:45:34.014Z,91.96
2023-02-05T22:47:35.621Z,92.25
2023-02-05T22:49:37.098Z,92.37
2023-02-05T22:51:40.202Z,92.73
2023-02-05T22:53:42.037Z,92.46
2023-02-05T22:55:43.442Z,92.19
2023-02-05T22:57:44.812Z,91.81
2023-02-05T22:59:46.194Z,92.36
2023-02-05T23:01:47.539Z,92.09
2023-02-05T23:03:50.752Z,92.01
2023-02-05T23:05:52.882Z,92.13
2023-02-05T23:07:54.333Z,92.40
2023-02-05T23:09:55.854Z,92.18
2023-02-05T23:11:57.288Z,91.80
2023-02-05T23:14:00.536Z,92.38
2023-02-05T23:16:25.848Z,92.33
2023-02-05T23:18:27.247Z,92.81
2023-02-05T23:20:28.658Z,92.38
2023-02-05T23:22:30.080Z,92.70
2023-02-05T23:24:31.434Z,92.70
2023-02-05T23:26:38.440Z,92.83
2023-02-05T23:28:40.136Z,92.98
2023-02-05T23:30:41.814Z,93.20
2023-02-05T23:32:43.238Z,93.15
2023-02-05T23:34:44.772Z,93.58
2023-02-05T23:36:46.115Z,93.48
2023-02-05T23:38:48.198Z,93.43
2023-02-05T23:40:49.585Z,93.68
2023-02-05T23:42:50.986Z,94.14
2023-02-05T23:44:52.369Z,93.68
2023-02-05T23:46:53.772Z,93.70
2023-02-05T23:48:55.152Z,93.77
2023-02-05T23:50:59.465Z,93.97
2023-02-05T23:53:00.903Z,93.87
2023-02-05T23:55:02.315Z,93.90
2023-02-05T23:57:04.151Z,94.19
2023-02-05T23:59:07.063Z,94.21
